createdAt,value
2022-10-25T00:00:57.711Z,70.48
2022-10-25T00:03:24.755Z,70.43
2022-10-25T00:05:51.908Z,70.49
2022-10-25T00:08:19.050Z,70.51
2022-10-25T00:10:46.096Z,70.58
2022-10-25T00:13:13.137Z,70.72
2022-10-25T00:15:40.398Z,70.82
2022-10-25T00:18:07.546Z,70.86
2022-10-25T00:20:37.051Z,70.72
2022-10-25T00:23:04.026Z,70.76
2022-10-25T00:25:31.051Z,70.67
2022-10-25T00:27:58.089Z,70.70
2022-10-25T00:30:25.237Z,70.76
2022-10-25T00:32:53.046Z,70.88
2022-10-25T00:35:20.156Z,70.82
2022-10-25T00:37:47.199Z,70.89
2022-10-25T00:40:14.247Z,70.81
2022-10-25T00:42:41.220Z,70.83
2022-10-25T00:45:25.960Z,70.93
2022-10-25T00:48:15.324Z,70.96
2022-10-25T00:50:52.202Z,71.14
2022-10-25T00:53:25.904Z,71.11
2022-10-25T00:55:56.769Z,71.09
2022-10-25T00:58:24.613Z,71.29
2022-10-25T01:00:51.657Z,71.30
2022-10-25T01:03:19.629Z,71.33
2022-10-25T01:05:46.539Z,71.39
2022-10-25T01:08:13.609Z,71.37
2022-10-25T01:10:40.655Z,71.27
2022-10-25T01:13:07.695Z,71.16
2022-10-25T01:15:57.832Z,71.12
2022-10-25T01:18:38.777Z,71.09
2022-10-25T01:21:14.989Z,71.06
2022-10-25T01:23:54.582Z,70.93
2022-10-25T01:26:43.308Z,70.75
2022-10-25T01:32:24.367Z,70.55
2022-10-25T01:34:56.742Z,70.52
2022-10-25T01:37:27.848Z,70.56
2022-10-25T01:40:00.157Z,70.50
2022-10-25T01:42:36.321Z,70.55
2022-10-25T01:45:08.193Z,70.59
2022-10-25T01:50:51.384Z,70.90
2022-10-25T01:53:18.420Z,70.97
2022-10-25T01:55:54.463Z,70.91
2022-10-25T01:58:37.498Z,70.79
2022-10-25T02:01:26.653Z,70.86
2022-10-25T02:04:17.161Z,70.88
2022-10-25T02:07:00.934Z,71.04
2022-10-25T02:09:39.621Z,71.20
2022-10-25T02:12:07.694Z,71.24
2022-10-25T02:14:37.569Z,71.20
2022-10-25T02:17:19.469Z,71.24
2022-10-25T02:19:59.478Z,71.42
2022-10-25T02:22:29.694Z,71.66
2022-10-25T02:24:56.720Z,71.93
2022-10-25T02:27:23.685Z,71.94
2022-10-25T02:29:50.711Z,72.02
2022-10-25T02:32:17.922Z,71.98
2022-10-25T02:34:48.062Z,72.11
2022-10-25T02:37:15.030Z,72.20
2022-10-25T02:39:41.995Z,72.27
2022-10-25T02:42:09.435Z,72.31
2022-10-25T02:44:36.491Z,72.15
2022-10-25T02:47:03.527Z,72.09
2022-10-25T02:49:30.686Z,72.13
2022-10-25T02:51:57.721Z,72.17
2022-10-25T02:54:24.974Z,72.19
2022-10-25T02:56:52.762Z,72.20
2022-10-25T02:59:21.334Z,72.11
2022-10-25T03:01:48.960Z,72.15
2022-10-25T03:04:16.451Z,72.27
2022-10-25T03:06:43.499Z,72.35
2022-10-25T03:09:10.539Z,72.43
2022-10-25T03:11:37.584Z,72.53
2022-10-25T03:14:04.577Z,72.56
2022-10-25T03:16:31.576Z,72.49
2022-10-25T03:18:59.275Z,72.39
2022-10-25T03:21:26.492Z,72.42
2022-10-25T03:23:53.546Z,72.98
2022-10-25T03:26:20.688Z,73.00
2022-10-25T03:28:47.743Z,73.07
2022-10-25T03:31:16.316Z,73.20
2022-10-25T03:33:43.552Z,74.62
2022-10-25T03:36:10.544Z,73.72
2022-10-25T03:38:37.462Z,73.28
2022-10-25T03:41:04.739Z,73.08
2022-10-25T03:43:31.636Z,73.01
2022-10-25T03:45:58.769Z,72.80
2022-10-25T03:48:25.699Z,72.72
2022-10-25T03:50:53.502Z,72.59
2022-10-25T03:53:20.545Z,72.51
2022-10-25T03:55:48.301Z,72.39
2022-10-25T03:58:15.239Z,72.32
2022-10-25T04:00:42.198Z,72.21
2022-10-25T04:03:09.176Z,72.13
2022-10-25T04:05:36.162Z,72.22
2022-10-25T04:08:03.180Z,72.44
2022-10-25T04:10:30.214Z,73.21
2022-10-25T04:12:57.211Z,72.54
2022-10-25T04:15:24.521Z,72.28
2022-10-25T04:17:51.959Z,72.13
2022-10-25T04:20:19.069Z,72.27
2022-10-25T04:22:46.051Z,72.32
2022-10-25T04:25:13.119Z,72.51
2022-10-25T04:27:40.031Z,72.14
2022-10-25T04:30:07.401Z,71.97
2022-10-25T04:32:34.349Z,71.96
2022-10-25T04:35:01.196Z,72.05
2022-10-25T04:37:46.175Z,72.20
2022-10-25T04:40:13.307Z,72.26
2022-10-25T04:42:40.396Z,72.32
2022-10-25T04:45:07.784Z,72.30
2022-10-25T04:47:34.898Z,72.38
2022-10-25T04:50:02.050Z,72.46
2022-10-25T04:52:29.978Z,72.64
2022-10-25T04:54:57.236Z,72.81
2022-10-25T04:57:24.729Z,72.82
2022-10-25T04:59:52.932Z,72.91
2022-10-25T05:02:19.879Z,72.90
2022-10-25T05:04:46.723Z,73.13
2022-10-25T05:07:13.760Z,73.16
2022-10-25T05:09:43.853Z,73.49
2022-10-25T05:12:13.581Z,73.44
2022-10-25T05:14:40.700Z,73.33
2022-10-25T05:17:07.640Z,73.45
2022-10-25T05:19:34.586Z,73.67
2022-10-25T05:22:01.485Z,73.85
2022-10-25T05:24:28.405Z,73.98
2022-10-25T05:26:55.400Z,73.98
2022-10-25T05:29:22.283Z,73.85
2022-10-25T05:31:49.200Z,73.99
2022-10-25T05:34:16.212Z,74.08
2022-10-25T05:36:43.248Z,74.20
2022-10-25T05:39:10.127Z,74.39
2022-10-25T05:41:37.568Z,74.38
2022-10-25T05:44:05.538Z,74.30
2022-10-25T05:46:33.075Z,74.32
2022-10-25T05:49:00.273Z,74.39
2022-10-25T05:51:33.079Z,74.48
2022-10-25T05:54:14.178Z,74.50
2022-10-25T05:56:41.763Z,74.42
2022-10-25T05:59:13.115Z,74.34
2022-10-25T06:01:46.583Z,74.35
2022-10-25T06:04:13.894Z,74.37
2022-10-25T06:06:42.815Z,74.47
2022-10-25T06:09:09.832Z,74.57
2022-10-25T06:11:37.232Z,74.37
2022-10-25T06:14:04.421Z,74.22
2022-10-25T06:16:31.412Z,74.15
2022-10-25T06:18:58.370Z,74.19
2022-10-25T06:21:26.897Z,74.32
2022-10-25T06:23:54.238Z,74.39
2022-10-25T06:26:23.236Z,74.39
2022-10-25T06:28:55.260Z,74.37
2022-10-25T06:31:31.736Z,74.47
2022-10-25T06:34:00.444Z,74.38
2022-10-25T06:36:27.954Z,74.54
2022-10-25T06:38:55.034Z,74.70
2022-10-25T06:41:26.257Z,74.57
2022-10-25T06:43:53.271Z,74.45
2022-10-25T06:46:21.755Z,74.35
2022-10-25T06:48:53.171Z,74.25
2022-10-25T06:51:23.364Z,74.28
2022-10-25T06:54:09.790Z,74.18
2022-10-25T06:56:36.934Z,74.08
2022-10-25T06:59:03.878Z,74.11
2022-10-25T07:01:30.903Z,74.35
2022-10-25T07:03:58.780Z,74.51
2022-10-25T07:06:27.588Z,74.28
2022-10-25T07:08:55.755Z,74.11
2022-10-25T07:11:23.366Z,74.11
2022-10-25T07:13:50.321Z,74.11
2022-10-25T07:16:18.616Z,74.11
2022-10-25T07:18:45.755Z,74.23
2022-10-25T07:21:14.224Z,74.11
2022-10-25T07:23:44.195Z,73.87
2022-10-25T07:26:18.301Z,73.99
2022-10-25T07:28:46.310Z,74.18
2022-10-25T07:31:33.201Z,74.19
2022-10-25T07:34:01.096Z,74.15
2022-10-25T07:36:27.995Z,73.81
2022-10-25T07:38:54.977Z,73.75
2022-10-25T07:41:24.157Z,73.81
2022-10-25T07:43:51.291Z,73.84
2022-10-25T07:46:21.645Z,73.65
2022-10-25T07:48:48.535Z,73.74
2022-10-25T07:51:16.693Z,73.79
2022-10-25T07:53:44.041Z,73.75
2022-10-25T07:56:32.283Z,73.85
2022-10-25T07:58:59.385Z,73.69
2022-10-25T08:01:27.723Z,73.82
2022-10-25T08:03:55.227Z,73.85
2022-10-25T08:06:23.228Z,74.04
2022-10-25T08:08:50.179Z,74.18
2022-10-25T08:11:17.172Z,74.22
2022-10-25T08:13:44.258Z,74.38
2022-10-25T08:16:11.178Z,74.41
2022-10-25T08:18:38.198Z,74.58
2022-10-25T08:21:07.593Z,74.77
2022-10-25T08:23:35.159Z,74.52
2022-10-25T08:26:02.310Z,74.48
2022-10-25T08:28:31.651Z,74.38
2022-10-25T08:31:01.062Z,74.35
2022-10-25T08:33:31.952Z,74.39
2022-10-25T08:36:14.177Z,74.45
2022-10-25T08:38:50.709Z,74.40
2022-10-25T08:41:23.112Z,74.30
2022-10-25T08:44:10.077Z,74.48
2022-10-25T08:46:41.630Z,74.63
2022-10-25T08:49:20.048Z,74.58
2022-10-25T08:51:48.259Z,74.57
2022-10-25T08:54:20.139Z,74.83
2022-10-25T08:57:10.706Z,74.95
2022-10-25T08:59:47.273Z,75.20
2022-10-25T09:02:55.100Z,75.20
2022-10-25T09:05:40.432Z,75.20
2022-10-25T09:08:22.837Z,75.50
2022-10-25T09:11:25.948Z,75.42
2022-10-25T09:14:01.249Z,75.69
2022-10-25T09:16:48.295Z,75.66
2022-10-25T09:19:24.669Z,75.87
2022-10-25T09:22:02.149Z,76.10
2022-10-25T09:24:33.056Z,76.20
2022-10-25T09:27:10.002Z,76.15
2022-10-25T09:29:50.019Z,76.15
2022-10-25T09:32:26.795Z,76.07
2022-10-25T09:34:53.832Z,76.09
2022-10-25T09:37:27.958Z,76.03
2022-10-25T09:40:06.931Z,76.08
2022-10-25T09:42:37.472Z,75.80
2022-10-25T09:45:07.605Z,75.53
2022-10-25T09:47:40.876Z,75.33
2022-10-25T09:50:20.244Z,75.19
2022-10-25T09:53:09.404Z,74.90
2022-10-25T09:55:54.968Z,74.71
2022-10-25T09:58:22.607Z,74.64
2022-10-25T10:00:51.108Z,74.55
2022-10-25T10:03:22.995Z,74.29
2022-10-25T10:05:59.976Z,74.24
2022-10-25T10:08:30.595Z,74.15
2022-10-25T10:11:05.690Z,73.98
2022-10-25T10:13:44.509Z,74.24
2022-10-25T10:16:15.042Z,74.49
2022-10-25T10:18:43.828Z,74.74
2022-10-25T10:21:10.829Z,74.43
2022-10-25T10:23:46.142Z,74.23
2022-10-25T10:26:29.345Z,74.06
2022-10-25T10:29:27.772Z,73.87
2022-10-25T10:31:56.452Z,73.96
2022-10-25T10:34:29.425Z,74.19
2022-10-25T10:37:02.317Z,74.27
2022-10-25T10:39:29.257Z,74.30
2022-10-25T10:42:03.976Z,74.28
2022-10-25T10:44:34.680Z,74.36
2022-10-25T10:47:20.450Z,74.48
2022-10-25T10:51:53.100Z,74.51
2022-10-25T10:55:02.381Z,74.25
2022-10-25T10:59:46.262Z,74.54
2022-10-25T11:02:26.180Z,74.74
2022-10-25T11:04:55.471Z,74.67
2022-10-25T11:07:32.363Z,74.64
2022-10-25T11:10:38.817Z,74.86
2022-10-25T11:13:07.746Z,75.11
2022-10-25T11:16:24.318Z,75.33
2022-10-25T11:19:09.269Z,75.38
2022-10-25T11:25:25.957Z,75.40
2022-10-25T11:28:16.912Z,75.44
2022-10-25T11:31:21.723Z,75.59
2022-10-25T11:33:57.169Z,75.68
2022-10-25T11:36:24.137Z,75.66
2022-10-25T11:39:02.647Z,75.77
2022-10-25T11:41:52.432Z,75.82
2022-10-25T11:44:30.901Z,75.89
2022-10-25T11:47:44.584Z,75.96
2022-10-25T11:50:24.641Z,76.11
2022-10-25T11:53:01.044Z,75.98
2022-10-25T11:55:54.998Z,76.15
2022-10-25T11:58:37.320Z,76.47
2022-10-25T12:01:18.315Z,76.53
2022-10-25T12:04:04.350Z,76.62
2022-10-25T12:06:34.471Z,76.57
2022-10-25T12:09:45.869Z,76.68
2022-10-25T12:12:18.080Z,76.58
2022-10-25T12:14:48.862Z,76.61
2022-10-25T12:17:36.055Z,76.56
2022-10-25T12:20:05.559Z,76.31
2022-10-25T12:22:41.701Z,76.37
2022-10-25T12:25:28.236Z,76.12
2022-10-25T12:28:43.172Z,75.74
2022-10-25T12:31:14.498Z,75.00
2022-10-25T12:34:02.585Z,74.88
2022-10-25T12:36:36.527Z,74.71
2022-10-25T12:39:07.067Z,74.38
2022-10-25T12:41:37.312Z,74.14
2022-10-25T12:44:22.898Z,73.98
2022-10-25T12:47:08.076Z,74.00
2022-10-25T12:50:06.026Z,73.88
2022-10-25T12:52:38.026Z,73.55
2022-10-25T12:55:44.345Z,73.24
2022-10-25T12:58:17.254Z,72.28
2022-10-25T13:00:55.785Z,71.61
2022-10-25T13:03:42.326Z,71.68
2022-10-25T13:06:56.520Z,71.63
2022-10-25T13:09:31.944Z,70.82
2022-10-25T13:12:20.097Z,70.57
2022-10-25T13:14:50.755Z,70.01
2022-10-25T13:17:20.663Z,69.47
2022-10-25T13:19:56.223Z,69.05
2022-10-25T13:22:37.423Z,68.75
2022-10-25T13:25:12.823Z,68.65
2022-10-25T13:27:41.267Z,68.34
2022-10-25T13:30:32.333Z,68.15
2022-10-25T13:33:19.083Z,68.01
2022-10-25T13:35:48.975Z,67.92
2022-10-25T13:38:39.741Z,68.00
2022-10-25T13:41:08.153Z,67.91
2022-10-25T13:43:59.984Z,67.87
2022-10-25T13:46:30.512Z,67.17
2022-10-25T13:48:57.629Z,66.51
2022-10-25T13:51:24.484Z,65.86
2022-10-25T13:53:52.236Z,65.91
2022-10-25T13:56:22.447Z,65.50
2022-10-25T13:58:53.559Z,65.19
2022-10-25T14:01:25.018Z,64.90
2022-10-25T14:04:19.994Z,64.90
2022-10-25T14:06:47.465Z,64.95
2022-10-25T14:09:33.713Z,64.95
2022-10-25T14:12:06.594Z,64.98
2022-10-25T14:14:49.176Z,65.08
2022-10-25T14:17:19.510Z,65.22
2022-10-25T14:19:48.210Z,65.49
2022-10-25T14:22:27.894Z,65.65
2022-10-25T14:24:57.338Z,65.90
2022-10-25T14:27:31.684Z,66.00
2022-10-25T14:30:20.547Z,66.10
2022-10-25T14:33:01.074Z,66.20
2022-10-25T14:35:32.925Z,66.49
2022-10-25T14:38:00.579Z,66.52
2022-10-25T14:40:31.577Z,66.80
2022-10-25T14:43:27.969Z,67.05
2022-10-25T14:46:03.631Z,67.15
2022-10-25T14:48:30.693Z,67.23
2022-10-25T14:50:59.336Z,67.31
2022-10-25T14:53:26.513Z,67.34
2022-10-25T14:55:55.416Z,67.44
2022-10-25T14:58:22.713Z,67.32
2022-10-25T15:00:54.605Z,67.29
2022-10-25T15:03:21.902Z,67.05
2022-10-25T15:05:48.829Z,66.99
2022-10-25T15:08:21.267Z,67.07
2022-10-25T15:10:53.520Z,66.95
2022-10-25T15:13:27.745Z,67.02
2022-10-25T15:15:55.031Z,67.32
2022-10-25T15:18:38.065Z,67.33
2022-10-25T15:21:17.956Z,67.41
2022-10-25T15:24:05.359Z,67.57
2022-10-25T15:26:35.709Z,67.86
2022-10-25T15:29:07.713Z,67.95
2022-10-25T15:31:34.665Z,68.25
2022-10-25T15:34:05.035Z,68.53
2022-10-25T15:36:32.813Z,68.56
2022-10-25T15:39:11.414Z,68.69
2022-10-25T15:41:43.504Z,68.89
2022-10-25T15:44:10.980Z,69.09
2022-10-25T15:46:38.298Z,69.45
2022-10-25T15:49:06.942Z,69.75
2022-10-25T15:51:34.538Z,69.79
2022-10-25T15:54:01.719Z,69.99
2022-10-25T15:56:29.203Z,70.03
2022-10-25T15:58:58.712Z,70.15
2022-10-25T16:01:25.828Z,70.39
2022-10-25T16:03:55.252Z,70.51
2022-10-25T16:06:24.836Z,70.60
2022-10-25T16:08:56.591Z,70.58
2022-10-25T16:11:26.022Z,70.34
2022-10-25T16:13:52.972Z,70.27
2022-10-25T16:16:40.429Z,70.13
2022-10-25T16:19:15.979Z,70.09
2022-10-25T16:21:43.391Z,70.29
2022-10-25T16:24:11.130Z,70.43
2022-10-25T16:26:41.245Z,70.37
2022-10-25T16:29:14.028Z,70.56
2022-10-25T16:31:41.029Z,70.64
2022-10-25T16:34:07.974Z,70.79
2022-10-25T16:36:34.915Z,70.94
2022-10-25T16:39:06.882Z,71.35
2022-10-25T16:41:34.234Z,71.34
2022-10-25T16:44:01.106Z,71.34
2022-10-25T16:46:28.153Z,71.41
2022-10-25T16:48:57.030Z,71.68
2022-10-25T16:51:26.541Z,71.97
2022-10-25T16:53:53.495Z,72.13
2022-10-25T16:56:20.614Z,71.94
2022-10-25T16:58:47.570Z,71.59
2022-10-25T17:01:28.073Z,71.40
2022-10-25T17:03:55.188Z,71.59
2022-10-25T17:06:40.764Z,71.80
2022-10-25T17:09:09.218Z,72.60
2022-10-25T17:11:36.885Z,72.69
2022-10-25T17:14:03.965Z,72.80
2022-10-25T17:16:31.053Z,73.05
2022-10-25T17:18:58.159Z,72.88
2022-10-25T17:21:25.027Z,72.94
2022-10-25T17:23:51.938Z,73.00
2022-10-25T17:26:19.141Z,73.01
2022-10-25T17:28:46.044Z,72.84
2022-10-25T17:31:14.628Z,72.87
2022-10-25T17:33:42.067Z,72.80
2022-10-25T17:36:11.019Z,72.88
2022-10-25T17:38:38.021Z,73.06
2022-10-25T17:41:05.107Z,73.03
2022-10-25T17:43:32.264Z,73.10
2022-10-25T17:46:01.303Z,73.11
2022-10-25T17:48:28.612Z,73.24
2022-10-25T17:51:04.016Z,73.37
2022-10-25T17:53:31.033Z,73.45
2022-10-25T17:56:13.142Z,73.55
2022-10-25T17:58:41.356Z,73.45
2022-10-25T18:01:08.957Z,73.56
2022-10-25T18:03:36.153Z,73.69
2022-10-25T18:06:03.972Z,73.78
2022-10-25T18:08:31.151Z,73.79
2022-10-25T18:10:58.061Z,73.73
2022-10-25T18:13:25.364Z,73.62
2022-10-25T18:15:52.709Z,73.68
2022-10-25T18:18:19.848Z,73.85
2022-10-25T18:20:51.396Z,73.83
2022-10-25T18:23:19.137Z,73.84
2022-10-25T18:25:52.891Z,74.02
2022-10-25T18:28:19.855Z,74.10
2022-10-25T18:30:46.770Z,74.19
2022-10-25T18:33:15.018Z,74.31
2022-10-25T18:35:42.061Z,74.27
2022-10-25T18:38:09.207Z,74.30
2022-10-25T18:40:37.887Z,74.22
2022-10-25T18:43:05.001Z,74.11
2022-10-25T18:45:35.000Z,74.13
2022-10-25T18:48:01.942Z,74.13
2022-10-25T18:50:29.009Z,74.11
2022-10-25T18:52:55.939Z,74.06
2022-10-25T18:55:26.751Z,74.11
2022-10-25T18:57:54.849Z,74.00
2022-10-25T19:00:23.883Z,73.91
2022-10-25T19:02:53.815Z,74.11
2022-10-25T19:05:21.541Z,74.17
2022-10-25T19:07:48.710Z,74.25
2022-10-25T19:10:15.844Z,74.17
2022-10-25T19:12:42.874Z,74.00
2022-10-25T19:15:10.720Z,73.87
2022-10-25T19:17:37.756Z,73.78
2022-10-25T19:20:05.272Z,74.06
2022-10-25T19:22:32.196Z,74.39
2022-10-25T19:27:31.048Z,74.27
2022-10-25T19:29:58.077Z,74.45
2022-10-25T19:32:26.443Z,74.82
2022-10-25T19:34:53.433Z,75.03
2022-10-25T19:37:20.377Z,75.17
2022-10-25T19:39:47.964Z,75.26
2022-10-25T19:42:15.020Z,75.33
2022-10-25T19:44:44.385Z,75.38
2022-10-25T19:47:11.499Z,75.51
2022-10-25T19:49:38.431Z,75.69
2022-10-25T19:52:05.489Z,75.78
2022-10-25T19:54:32.561Z,75.85
2022-10-25T19:56:59.427Z,75.76
2022-10-25T19:59:26.357Z,75.69
2022-10-25T20:01:53.507Z,75.61
2022-10-25T20:04:20.451Z,75.54
2022-10-25T20:06:47.328Z,75.37
2022-10-25T20:09:14.548Z,75.22
2022-10-25T20:11:42.651Z,75.19
2022-10-25T20:14:09.690Z,75.18
2022-10-25T20:16:37.096Z,75.22
2022-10-25T20:23:00.747Z,75.28
2022-10-25T20:25:34.799Z,75.30
2022-10-25T20:28:04.598Z,75.37
2022-10-25T20:30:32.957Z,75.52
2022-10-25T20:32:59.933Z,75.58
2022-10-25T20:35:27.200Z,75.50
2022-10-25T20:37:54.293Z,75.56
2022-10-25T20:40:21.282Z,75.55
2022-10-25T20:42:48.351Z,75.66
2022-10-25T20:45:15.475Z,75.77
2022-10-25T20:47:43.028Z,75.73
2022-10-25T20:50:10.284Z,75.71
2022-10-25T20:52:47.611Z,75.71
2022-10-25T20:55:15.335Z,75.82
2022-10-25T20:57:42.998Z,75.82
2022-10-25T21:00:11.149Z,75.89
2022-10-25T21:02:38.309Z,75.77
2022-10-25T21:05:06.170Z,75.76
2022-10-25T21:07:33.334Z,75.76
2022-10-25T21:10:00.388Z,75.81
2022-10-25T21:12:27.454Z,75.88
2022-10-25T21:14:54.476Z,75.94
2022-10-25T21:17:21.543Z,75.86
2022-10-25T21:19:48.571Z,75.76
2022-10-25T21:22:15.632Z,75.82
2022-10-25T21:24:42.669Z,75.85
2022-10-25T21:27:10.743Z,75.85
2022-10-25T21:29:37.807Z,75.88
2022-10-25T21:32:05.447Z,75.66
2022-10-25T21:34:32.493Z,75.51
2022-10-25T21:36:59.540Z,75.49
2022-10-25T21:39:26.585Z,75.66
2022-10-25T21:41:53.866Z,75.69
2022-10-25T21:44:22.421Z,76.01
2022-10-25T21:46:49.775Z,76.11
2022-10-25T21:49:16.825Z,76.14
2022-10-25T21:51:43.871Z,76.16
2022-10-25T21:54:11.126Z,76.12
2022-10-25T21:56:38.199Z,76.13
2022-10-25T21:59:05.419Z,76.09
2022-10-25T22:01:32.528Z,76.00
2022-10-25T22:03:59.933Z,75.89
2022-10-25T22:06:27.688Z,75.84
2022-10-25T22:08:55.758Z,75.86
2022-10-25T22:11:27.607Z,75.88
2022-10-25T22:13:56.095Z,75.90
2022-10-25T22:16:23.394Z,75.74
2022-10-25T22:18:55.022Z,75.61
2022-10-25T22:21:22.156Z,75.37
2022-10-25T22:23:49.256Z,75.37
2022-10-25T22:26:17.788Z,75.37
2022-10-25T22:28:45.245Z,75.27
2022-10-25T22:31:14.569Z,75.07
2022-10-25T22:33:42.206Z,74.97
2022-10-25T22:36:16.072Z,74.86
2022-10-25T22:38:43.189Z,74.72
2022-10-25T22:41:12.668Z,74.77
2022-10-25T22:43:39.937Z,74.75
2022-10-25T22:46:08.606Z,74.77
2022-10-25T22:48:36.886Z,74.58
2022-10-25T22:51:04.445Z,74.53
2022-10-25T22:53:31.497Z,74.55
2022-10-25T22:56:05.808Z,74.55
2022-10-25T22:58:33.669Z,74.53
2022-10-25T23:01:14.952Z,74.30
2022-10-25T23:03:43.718Z,74.05
2022-10-25T23:06:12.627Z,73.95
2022-10-25T23:08:40.119Z,73.89
2022-10-25T23:11:13.964Z,73.78
2022-10-25T23:13:41.243Z,73.55
2022-10-25T23:16:08.732Z,73.40
2022-10-25T23:18:35.955Z,73.16
2022-10-25T23:21:03.348Z,72.95
2022-10-25T23:23:34.397Z,72.91
2022-10-25T23:26:01.654Z,72.81
2022-10-25T23:28:33.973Z,72.75
2022-10-25T23:31:09.027Z,72.58
2022-10-25T23:33:36.157Z,72.39
2022-10-25T23:36:11.318Z,72.20
2022-10-25T23:40:04.708Z,72.06
2022-10-25T23:42:31.664Z,71.95
2022-10-25T23:44:58.903Z,71.79
2022-10-25T23:47:25.912Z,71.54
2022-10-25T23:49:52.987Z,71.56
2022-10-25T23:52:20.008Z,71.46
2022-10-25T23:54:47.084Z,71.26
2022-10-25T23:57:14.100Z,71.26
2022-10-25T23:59:41.271Z,71.25
